KCCR/CCR METAR and TAF weather

Enter ICAO airport designator
Station Type Date Time Source
KCCR METAR 2021/06/24 04:53 UTC NOAA

KCCR 240453Z AUTO 25010KT 10SM CLR 17/12 A2996 RMK AO2 SLP132 T01670117


Station Type Date Time Source
KCCR Decoded METAR 2021/06/24 04:53 UTC NOAA

CONCORD BUCHANAN FIELD, CA, United States (KCCR) 38-00N 122-03W 11M
Jun 24, 2021 - 12:53 AM EDT / 2021.06.24 0453 UTC
Wind: from the WSW (250 degrees) at 12 MPH (10 KT):0
Visibility: 10 mile(s):0
Sky conditions: clear
Temperature: 62.1 F (16.7 C)
Dew Point: 53.1 F (11.7 C)
Relative Humidity: 72%
Pressure (altimeter): 29.96 in. Hg (1014 hPa)
ob: KCCR 240453Z AUTO 25010KT 10SM CLR 17/12 A2996 RMK AO2 SLP132 T01670117
cycle: 5

Station Type Date Time Source
KCCR TAF 2016/02/08 18:39 UTC NOAA

TAF KCCR 081738Z 0818/0918 07006KT P6SM SKC
FM082000 06010KT P6SM SKC
FM090000 06005KT P6SM SKC
FM090600 VRB03KT P6SM SKC

Example: see airport list